createdAt,value
2023-10-19T00:00:47.049Z,100.83
2023-10-19T00:03:15.906Z,93.50
2023-10-19T00:05:44.135Z,93.30
2023-10-19T00:08:14.218Z,128.73
2023-10-19T00:10:52.642Z,121.63
2023-10-19T00:13:20.863Z,78.30
2023-10-19T00:15:53.349Z,110.80
2023-10-19T00:18:22.892Z,94.47
2023-10-19T00:21:01.306Z,64.57
2023-10-19T00:23:36.479Z,67.90
2023-10-19T00:26:16.359Z,85.77
2023-10-19T00:28:54.374Z,86.20
2023-10-19T00:31:23.360Z,55.03
2023-10-19T00:33:55.984Z,44.63
2023-10-19T00:36:25.380Z,47.13
2023-10-19T00:38:54.737Z,35.85
2023-10-19T00:41:32.510Z,45.33
2023-10-19T00:44:07.100Z,51.53
2023-10-19T00:46:55.543Z,35.87
2023-10-19T00:49:25.179Z,33.47
2023-10-19T00:57:09.281Z,171.20
2023-10-19T00:59:45.105Z,37.30
2023-10-19T01:02:23.020Z,72.57
2023-10-19T01:04:58.049Z,86.10
2023-10-19T01:07:31.032Z,125.10
2023-10-19T01:10:01.544Z,71.53
2023-10-19T01:12:35.025Z,61.37
2023-10-19T01:15:14.935Z,168.90
2023-10-19T01:17:48.304Z,65.77
2023-10-19T01:20:24.580Z,61.50
2023-10-19T01:23:09.774Z,79.90
2023-10-19T01:26:01.085Z,43.07
2023-10-19T01:28:44.051Z,31.02
2023-10-19T01:31:30.050Z,22.10
2023-10-19T01:34:00.421Z,17.63
2023-10-19T01:36:28.571Z,18.17
2023-10-19T01:39:02.061Z,16.20
2023-10-19T01:41:32.385Z,17.70
2023-10-19T01:44:06.260Z,16.33
2023-10-19T01:46:36.811Z,20.10
2023-10-19T01:49:05.785Z,18.93
2023-10-19T01:51:39.493Z,17.55
2023-10-19T01:54:09.102Z,16.43
2023-10-19T01:56:37.413Z,16.75
2023-10-19T01:59:05.748Z,16.33
2023-10-19T02:01:34.476Z,16.73
2023-10-19T02:04:06.964Z,19.05
2023-10-19T02:06:36.125Z,19.63
2023-10-19T02:09:24.529Z,17.53
2023-10-19T02:11:56.580Z,17.08
2023-10-19T02:14:26.644Z,16.63
2023-10-19T02:19:27.651Z,17.53
2023-10-19T02:21:58.224Z,15.50
2023-10-19T02:24:27.014Z,19.23
2023-10-19T02:26:57.003Z,17.40
2023-10-19T02:29:25.024Z,15.17
2023-10-19T02:31:54.104Z,18.03
2023-10-19T02:34:21.983Z,21.80
2023-10-19T02:36:49.375Z,17.23
2023-10-19T02:39:18.500Z,26.77
2023-10-19T02:41:49.288Z,31.90
2023-10-19T02:44:18.447Z,28.90
2023-10-19T02:46:48.269Z,22.80
2023-10-19T02:51:50.831Z,19.80
2023-10-19T02:54:21.030Z,15.90
2023-10-19T02:56:51.201Z,16.53
2023-10-19T02:59:24.347Z,18.03
2023-10-19T03:02:12.856Z,16.40
2023-10-19T03:04:43.053Z,16.12
2023-10-19T03:07:14.741Z,15.27
2023-10-19T03:09:50.222Z,15.97
2023-10-19T03:12:19.995Z,14.43
2023-10-19T03:14:49.367Z,16.55
2023-10-19T03:19:45.653Z,15.95
2023-10-19T03:22:14.129Z,23.67
2023-10-19T03:24:42.322Z,20.48
2023-10-19T03:27:25.464Z,20.07
2023-10-19T03:29:57.329Z,20.70
2023-10-19T03:32:33.892Z,17.70
2023-10-19T03:35:02.649Z,18.43
2023-10-19T03:37:32.504Z,18.83
2023-10-19T03:40:00.751Z,11.33
2023-10-19T03:42:33.450Z,11.27
2023-10-19T03:45:03.870Z,10.57
2023-10-19T03:47:40.278Z,8.23
2023-10-19T03:50:08.965Z,10.37
2023-10-19T03:52:40.823Z,12.00
2023-10-19T03:55:24.965Z,11.43
2023-10-19T03:57:55.694Z,11.57
2023-10-19T04:00:29.420Z,7.93
2023-10-19T04:02:59.967Z,7.33
2023-10-19T04:05:29.760Z,8.47
2023-10-19T04:07:59.005Z,7.57
2023-10-19T04:10:35.871Z,6.53
2023-10-19T04:13:04.319Z,6.00
2023-10-19T04:15:35.699Z,5.60
2023-10-19T04:18:12.458Z,8.33
2023-10-19T04:20:49.460Z,5.93
2023-10-19T04:23:17.662Z,7.17
2023-10-19T04:25:47.869Z,4.93
2023-10-19T04:28:16.935Z,5.70
2023-10-19T04:30:44.832Z,6.30
2023-10-19T04:33:12.631Z,8.97
2023-10-19T04:35:42.915Z,6.43
2023-10-19T04:38:11.254Z,6.60
2023-10-19T04:40:38.518Z,8.27
2023-10-19T04:43:06.903Z,8.30
2023-10-19T04:45:34.707Z,9.18
2023-10-19T04:48:04.316Z,7.70
2023-10-19T04:50:31.875Z,9.97
2023-10-19T04:53:00.157Z,12.03
2023-10-19T04:55:28.920Z,11.13
2023-10-19T04:57:56.480Z,14.82
2023-10-19T05:00:26.065Z,12.93
2023-10-19T05:02:53.902Z,10.20
2023-10-19T05:05:21.950Z,9.43
2023-10-19T05:07:50.826Z,13.60
2023-10-19T05:10:18.642Z,11.25
2023-10-19T05:12:45.993Z,19.63
2023-10-19T05:15:14.018Z,16.47
2023-10-19T05:17:42.102Z,23.83
2023-10-19T05:20:10.509Z,24.70
2023-10-19T05:22:38.654Z,9.27
2023-10-19T05:25:09.078Z,8.93
2023-10-19T05:27:36.612Z,9.23
2023-10-19T05:30:05.900Z,9.50
2023-10-19T05:32:34.781Z,8.60
2023-10-19T05:35:05.947Z,9.68
2023-10-19T05:37:35.238Z,9.03
2023-10-19T05:40:02.574Z,7.32
2023-10-19T05:42:30.864Z,7.87
2023-10-19T05:44:58.604Z,6.53
2023-10-19T05:47:26.394Z,7.47
2023-10-19T05:49:54.912Z,6.93
2023-10-19T05:52:23.876Z,6.62
2023-10-19T05:54:51.362Z,6.60
2023-10-19T05:57:18.946Z,7.80
2023-10-19T05:59:47.115Z,6.30
2023-10-19T06:02:14.686Z,8.10
2023-10-19T06:04:42.593Z,7.37
2023-10-19T06:07:10.062Z,6.70
2023-10-19T06:09:37.431Z,7.10
2023-10-19T06:12:05.383Z,8.60
2023-10-19T06:14:33.160Z,6.90
2023-10-19T06:17:02.252Z,8.03
2023-10-19T06:19:30.215Z,7.77
2023-10-19T06:21:57.664Z,8.83
2023-10-19T06:24:25.010Z,7.20
2023-10-19T06:26:54.001Z,6.83
2023-10-19T06:29:21.263Z,6.70
2023-10-19T06:31:48.612Z,7.70
2023-10-19T06:34:18.610Z,13.60
2023-10-19T06:36:46.725Z,8.10
2023-10-19T06:39:14.747Z,6.60
2023-10-19T06:41:42.411Z,7.30
2023-10-19T06:44:09.790Z,7.47
2023-10-19T06:46:37.461Z,6.87
2023-10-19T06:49:05.484Z,10.87
2023-10-19T06:51:34.621Z,9.37
2023-10-19T06:54:02.810Z,10.47
2023-10-19T06:56:32.227Z,9.93
2023-10-19T06:59:00.227Z,8.57
2023-10-19T07:01:30.980Z,8.57
2023-10-19T07:03:59.925Z,8.33
2023-10-19T07:06:27.935Z,7.72
2023-10-19T07:08:55.225Z,9.03
2023-10-19T07:11:25.400Z,7.47
2023-10-19T07:13:52.932Z,9.23
2023-10-19T07:16:21.489Z,7.87
2023-10-19T07:18:49.412Z,6.10
2023-10-19T07:21:38.294Z,7.40
2023-10-19T07:24:10.614Z,7.20
2023-10-19T07:26:52.745Z,10.23
2023-10-19T07:29:23.601Z,8.70
2023-10-19T07:31:53.528Z,8.17
2023-10-19T07:34:26.590Z,8.80
2023-10-19T07:36:55.436Z,8.03
2023-10-19T07:39:24.392Z,7.50
2023-10-19T07:41:53.353Z,12.60
2023-10-19T07:44:20.754Z,8.13
2023-10-19T07:46:48.484Z,7.93
2023-10-19T07:49:16.013Z,8.17
2023-10-19T07:51:48.563Z,7.00
2023-10-19T07:54:17.254Z,8.90
2023-10-19T07:56:45.169Z,8.27
2023-10-19T07:59:13.653Z,6.93
2023-10-19T08:01:41.540Z,7.05
2023-10-19T08:04:09.532Z,6.00
2023-10-19T08:06:37.332Z,13.30
2023-10-19T08:09:06.316Z,9.83
2023-10-19T08:11:35.177Z,7.43
2023-10-19T08:14:02.700Z,11.60
2023-10-19T08:16:30.189Z,7.37
2023-10-19T08:18:59.532Z,7.87
2023-10-19T08:21:30.006Z,6.82
2023-10-19T08:23:57.719Z,7.07
2023-10-19T08:26:25.176Z,10.93
2023-10-19T08:28:52.797Z,7.67
2023-10-19T08:31:21.010Z,7.77
2023-10-19T08:33:49.047Z,6.33
2023-10-19T08:36:22.943Z,6.90
2023-10-19T08:38:51.012Z,6.27
2023-10-19T08:41:18.741Z,5.27
2023-10-19T08:43:46.434Z,5.03
2023-10-19T08:46:15.043Z,6.70
2023-10-19T08:48:42.894Z,9.32
2023-10-19T08:51:11.651Z,4.80
2023-10-19T08:56:09.918Z,10.10
2023-10-19T08:58:37.468Z,6.97
2023-10-19T09:01:08.345Z,5.73
2023-10-19T09:03:36.273Z,5.10
2023-10-19T09:06:06.591Z,4.37
2023-10-19T09:08:41.050Z,5.70
2023-10-19T09:11:10.423Z,7.70
2023-10-19T09:13:48.352Z,5.90
2023-10-19T09:16:17.840Z,6.47
2023-10-19T09:18:48.663Z,7.20
2023-10-19T09:21:27.104Z,6.53
2023-10-19T09:23:57.268Z,7.95
2023-10-19T09:26:26.356Z,6.47
2023-10-19T09:31:26.122Z,8.33
2023-10-19T09:33:58.520Z,6.20
2023-10-19T09:36:31.257Z,5.83
2023-10-19T09:38:59.407Z,7.17
2023-10-19T09:41:30.249Z,6.50
2023-10-19T09:44:12.225Z,10.07
2023-10-19T09:46:42.180Z,6.87
2023-10-19T09:49:13.252Z,4.80
2023-10-19T09:51:49.079Z,5.93
2023-10-19T09:54:32.931Z,4.53
2023-10-19T09:57:11.721Z,5.23
2023-10-19T09:59:42.396Z,8.70
2023-10-19T10:02:15.053Z,7.55
2023-10-19T10:04:47.046Z,5.83
2023-10-19T10:07:25.735Z,7.13
2023-10-19T10:10:00.709Z,4.10
2023-10-19T10:12:31.228Z,4.75
2023-10-19T10:15:09.948Z,5.90
2023-10-19T10:17:41.124Z,6.30
2023-10-19T10:20:14.966Z,6.20
2023-10-19T10:22:43.560Z,4.90
2023-10-19T10:25:32.239Z,4.95
2023-10-19T10:28:00.078Z,7.18
2023-10-19T10:30:29.449Z,7.62
2023-10-19T10:32:57.779Z,4.22
2023-10-19T10:35:37.695Z,4.22
2023-10-19T10:38:07.421Z,6.45
2023-10-19T10:40:45.205Z,4.93
2023-10-19T10:43:13.609Z,4.45
2023-10-19T10:45:41.669Z,4.18
2023-10-19T10:48:23.868Z,8.65
2023-10-19T10:50:51.662Z,3.47
2023-10-19T10:53:19.431Z,3.75
2023-10-19T10:55:47.025Z,4.30
2023-10-19T10:58:19.267Z,3.60
2023-10-19T11:00:53.119Z,4.18
2023-10-19T11:03:23.397Z,6.22
2023-10-19T11:05:50.955Z,4.07
2023-10-19T11:08:22.153Z,4.60
2023-10-19T11:10:50.566Z,5.07
2023-10-19T11:13:23.694Z,5.20
2023-10-19T11:15:59.771Z,4.82
2023-10-19T11:18:38.641Z,6.05
2023-10-19T11:21:11.698Z,4.50
2023-10-19T11:23:50.882Z,4.25
2023-10-19T11:26:26.307Z,3.67
2023-10-19T11:29:05.674Z,3.03
2023-10-19T11:31:39.313Z,2.97
2023-10-19T11:34:08.889Z,4.12
2023-10-19T11:36:37.066Z,3.08
2023-10-19T11:39:05.969Z,3.40
2023-10-19T11:44:01.785Z,4.72
2023-10-19T11:46:30.876Z,4.12
2023-10-19T11:48:58.265Z,4.87
2023-10-19T11:51:26.061Z,3.42
2023-10-19T11:53:53.498Z,3.35
2023-10-19T11:56:22.282Z,3.20
2023-10-19T11:58:50.143Z,2.67
2023-10-19T12:01:20.392Z,3.58
2023-10-19T12:03:50.088Z,3.30
2023-10-19T12:06:21.241Z,3.25
2023-10-19T12:08:49.216Z,4.12
2023-10-19T12:11:16.981Z,5.25
2023-10-19T12:13:45.449Z,2.90
2023-10-19T12:16:21.058Z,3.60
2023-10-19T12:18:50.055Z,2.90
2023-10-19T12:21:19.785Z,2.72
2023-10-19T12:23:52.883Z,4.95
2023-10-19T12:26:21.316Z,6.78
2023-10-19T12:28:50.623Z,7.55
2023-10-19T12:31:20.638Z,7.55
2023-10-19T12:33:48.753Z,2.33
2023-10-19T12:36:28.676Z,2.60
2023-10-19T12:38:56.837Z,2.67
2023-10-19T12:41:25.881Z,4.82
2023-10-19T12:44:00.222Z,4.37
2023-10-19T12:46:31.170Z,4.68
2023-10-19T12:48:59.599Z,2.00
2023-10-19T12:51:27.301Z,5.20
2023-10-19T12:53:56.096Z,3.12
2023-10-19T12:56:30.693Z,1.50
2023-10-19T12:58:58.526Z,2.78
2023-10-19T13:01:28.851Z,7.75
2023-10-19T13:03:56.985Z,7.70
2023-10-19T13:06:30.560Z,7.78
2023-10-19T13:08:59.218Z,5.87
2023-10-19T13:11:28.789Z,8.80
2023-10-19T13:13:56.336Z,5.40
2023-10-19T13:16:24.119Z,7.07
2023-10-19T13:18:52.112Z,8.18
2023-10-19T13:21:23.601Z,7.10
2023-10-19T13:23:51.038Z,5.40
2023-10-19T13:26:19.132Z,7.85
2023-10-19T13:28:48.285Z,8.10
2023-10-19T13:31:17.213Z,8.93
2023-10-19T13:33:47.868Z,10.65
2023-10-19T13:36:15.372Z,7.95
2023-10-19T13:38:43.750Z,7.43
2023-10-19T13:41:12.337Z,6.60
2023-10-19T13:43:41.365Z,10.77
2023-10-19T13:46:22.694Z,7.03
2023-10-19T13:48:50.642Z,7.53
2023-10-19T13:51:21.491Z,9.77
2023-10-19T13:53:51.232Z,8.15
2023-10-19T13:56:19.117Z,7.97
2023-10-19T13:58:48.402Z,9.73
2023-10-19T14:01:18.002Z,7.30
2023-10-19T14:03:46.468Z,6.72
2023-10-19T14:06:15.536Z,5.30
2023-10-19T14:08:43.346Z,17.60
2023-10-19T14:11:11.242Z,9.45
2023-10-19T14:13:38.711Z,8.73
2023-10-19T14:16:07.780Z,7.83
2023-10-19T14:18:36.224Z,7.85
2023-10-19T14:21:14.399Z,9.68
2023-10-19T14:23:43.846Z,8.98
2023-10-19T14:26:13.245Z,7.22
2023-10-19T14:28:42.460Z,7.22
2023-10-19T14:31:10.519Z,9.68
2023-10-19T14:33:39.104Z,16.52
2023-10-19T14:36:07.143Z,15.18
2023-10-19T14:41:02.508Z,42.03
2023-10-19T14:43:34.239Z,15.40
2023-10-19T14:46:03.102Z,15.07
2023-10-19T14:48:30.679Z,11.20
2023-10-19T14:50:59.259Z,7.20
2023-10-19T14:53:27.299Z,7.43
2023-10-19T14:56:02.540Z,7.45
2023-10-19T14:58:30.938Z,5.72
2023-10-19T15:00:59.176Z,7.50
2023-10-19T15:03:26.713Z,5.93
2023-10-19T15:05:54.947Z,10.25
2023-10-19T15:08:28.061Z,7.40
2023-10-19T15:10:56.176Z,4.75
2023-10-19T15:13:23.867Z,6.53
2023-10-19T15:15:52.328Z,9.93
2023-10-19T15:20:47.837Z,3.65
2023-10-19T15:23:15.376Z,5.65
2023-10-19T15:25:43.347Z,4.82
2023-10-19T15:28:12.513Z,3.87
2023-10-19T15:30:41.406Z,3.78
2023-10-19T15:33:09.845Z,4.90
2023-10-19T15:35:37.857Z,2.90
2023-10-19T15:38:06.185Z,6.22
2023-10-19T15:43:04.402Z,4.55
2023-10-19T15:45:36.306Z,4.18
2023-10-19T15:48:04.599Z,5.37
2023-10-19T15:50:32.276Z,2.80
2023-10-19T15:53:00.316Z,8.35
2023-10-19T15:55:29.071Z,3.25
2023-10-19T15:57:57.016Z,3.65
2023-10-19T16:00:24.512Z,3.73
2023-10-19T16:02:52.771Z,6.28
2023-10-19T16:05:20.885Z,6.10
2023-10-19T16:07:48.648Z,7.95
2023-10-19T16:10:16.760Z,5.32
2023-10-19T16:12:45.015Z,11.50
2023-10-19T16:15:15.217Z,7.00
2023-10-19T16:17:45.074Z,4.62
2023-10-19T16:20:16.671Z,1.90
2023-10-19T16:22:45.904Z,3.27
2023-10-19T16:25:13.817Z,2.17
2023-10-19T16:27:41.650Z,2.13
2023-10-19T16:30:18.503Z,1.90
2023-10-19T16:32:46.883Z,2.53
2023-10-19T16:35:15.116Z,1.80
2023-10-19T16:37:42.801Z,3.00
2023-10-19T16:40:12.856Z,2.45
2023-10-19T16:42:42.479Z,2.83
2023-10-19T16:45:11.747Z,7.33
2023-10-19T16:47:42.475Z,3.57
2023-10-19T16:50:13.189Z,6.97
2023-10-19T16:52:41.041Z,6.60
2023-10-19T16:55:11.718Z,6.67
2023-10-19T16:57:39.663Z,7.67
2023-10-19T17:00:07.876Z,6.17
2023-10-19T17:02:36.740Z,8.48
2023-10-19T17:05:04.904Z,5.43
2023-10-19T17:07:32.390Z,9.53
2023-10-19T17:09:59.755Z,7.17
2023-10-19T17:12:27.456Z,7.13
2023-10-19T17:14:54.866Z,8.63
2023-10-19T17:17:23.850Z,12.00
2023-10-19T17:19:51.868Z,11.23
2023-10-19T17:22:19.916Z,9.83
2023-10-19T17:24:47.623Z,5.63
2023-10-19T17:27:15.655Z,5.30
2023-10-19T17:29:43.818Z,5.37
2023-10-19T17:32:12.073Z,5.57
2023-10-19T17:34:41.146Z,5.90
2023-10-19T17:37:09.139Z,7.90
2023-10-19T17:39:36.941Z,11.33
2023-10-19T17:42:04.834Z,5.78
2023-10-19T17:44:32.659Z,4.03
2023-10-19T17:47:00.406Z,5.00
2023-10-19T17:49:30.342Z,6.03
2023-10-19T17:51:58.619Z,7.03
2023-10-19T17:54:26.465Z,5.90
2023-10-19T17:56:54.430Z,6.30
2023-10-19T17:59:22.534Z,4.60
2023-10-19T18:01:51.957Z,10.43
2023-10-19T18:04:20.901Z,10.60
2023-10-19T18:06:48.388Z,16.25
2023-10-19T18:09:17.416Z,15.30
2023-10-19T18:11:45.309Z,14.77
2023-10-19T18:14:14.989Z,18.13
2023-10-19T18:16:42.482Z,15.03
2023-10-19T18:19:10.307Z,11.43
2023-10-19T18:21:38.288Z,8.30
2023-10-19T18:24:09.531Z,9.43
2023-10-19T18:26:38.024Z,7.93
2023-10-19T18:29:05.895Z,22.33
2023-10-19T18:31:33.805Z,15.90
2023-10-19T18:34:01.820Z,11.43
2023-10-19T18:36:34.570Z,11.27
2023-10-19T18:39:03.390Z,17.00
2023-10-19T18:41:32.615Z,17.80
2023-10-19T18:44:00.670Z,13.03
2023-10-19T18:46:30.268Z,9.32
2023-10-19T18:48:58.837Z,8.90
2023-10-19T18:51:27.739Z,6.70
2023-10-19T18:53:56.895Z,9.23
2023-10-19T18:56:26.456Z,8.73
2023-10-19T18:58:54.093Z,10.00
2023-10-19T19:01:22.027Z,9.60
2023-10-19T19:03:49.693Z,8.03
2023-10-19T19:06:17.418Z,8.13
2023-10-19T19:08:45.178Z,10.47
2023-10-19T19:11:17.710Z,12.60
2023-10-19T19:13:46.575Z,12.00
2023-10-19T19:16:14.350Z,10.02
2023-10-19T19:18:43.564Z,12.80
2023-10-19T19:21:12.253Z,10.13
2023-10-19T19:23:41.228Z,8.32
2023-10-19T19:28:40.403Z,8.85
2023-10-19T19:31:08.045Z,10.50
2023-10-19T19:33:35.574Z,10.07
2023-10-19T19:36:03.391Z,12.03
2023-10-19T19:38:30.867Z,9.07
2023-10-19T19:40:58.357Z,6.40
2023-10-19T19:43:26.222Z,9.50
2023-10-19T19:45:54.140Z,6.27
2023-10-19T19:48:24.629Z,7.97
2023-10-19T19:50:52.425Z,8.13
2023-10-19T19:53:20.906Z,7.07
2023-10-19T19:55:49.409Z,13.77
2023-10-19T19:58:17.820Z,7.43
2023-10-19T20:00:45.807Z,7.67
2023-10-19T20:03:14.098Z,7.37
2023-10-19T20:05:42.684Z,8.93
2023-10-19T20:08:12.538Z,8.70
2023-10-19T20:10:46.073Z,9.23
2023-10-19T20:13:15.391Z,8.20
2023-10-19T20:15:44.244Z,7.03
2023-10-19T20:18:13.664Z,9.93
2023-10-19T20:20:41.549Z,6.77
2023-10-19T20:23:11.113Z,9.68
2023-10-19T20:25:40.088Z,6.80
2023-10-19T20:28:07.689Z,8.75
2023-10-19T20:30:35.521Z,19.27
2023-10-19T20:33:06.026Z,9.57
2023-10-19T20:35:34.844Z,13.97
2023-10-19T20:38:06.535Z,12.02
2023-10-19T20:40:38.178Z,8.13
2023-10-19T20:53:01.822Z,9.83
2023-10-19T20:55:29.929Z,12.70
2023-10-19T20:57:57.298Z,7.50
2023-10-19T21:00:24.867Z,8.23
2023-10-19T21:02:52.772Z,20.30
2023-10-19T21:05:20.896Z,27.10
2023-10-19T21:07:49.773Z,95.80
2023-10-19T21:10:17.869Z,44.65
2023-10-19T21:12:46.214Z,20.90
2023-10-19T21:15:15.177Z,16.65
2023-10-19T21:17:48.863Z,13.47
2023-10-19T21:20:17.072Z,25.27
2023-10-19T21:22:46.577Z,22.15
2023-10-19T21:27:43.919Z,13.48
2023-10-19T21:30:14.565Z,11.27
2023-10-19T21:32:44.967Z,15.73
2023-10-19T21:35:13.087Z,8.83
2023-10-19T21:37:40.704Z,9.73
2023-10-19T21:40:09.255Z,10.20
2023-10-19T21:42:36.928Z,8.48
2023-10-19T21:45:04.629Z,10.07
2023-10-19T21:47:32.081Z,27.77
2023-10-19T21:50:00.008Z,31.00
2023-10-19T21:52:27.587Z,18.90
2023-10-19T21:54:55.343Z,10.03
2023-10-19T21:57:23.092Z,10.83
2023-10-19T21:59:50.426Z,11.60
2023-10-19T22:02:17.825Z,12.87
2023-10-19T22:04:46.071Z,12.60
2023-10-19T22:07:16.185Z,13.03
2023-10-19T22:09:43.641Z,13.90
2023-10-19T22:12:11.701Z,19.23
2023-10-19T22:14:40.957Z,13.73
2023-10-19T22:17:08.517Z,14.27
2023-10-19T22:19:37.651Z,17.80
2023-10-19T22:22:05.412Z,20.23
2023-10-19T22:24:32.994Z,20.87
2023-10-19T22:27:00.919Z,24.03
2023-10-19T22:29:28.309Z,21.67
2023-10-19T22:31:56.517Z,23.47
2023-10-19T22:34:24.421Z,18.50
2023-10-19T22:36:51.745Z,24.57
2023-10-19T22:39:20.548Z,13.60
2023-10-19T22:44:17.326Z,9.88
2023-10-19T22:46:45.533Z,10.63
2023-10-19T22:49:13.311Z,12.32
2023-10-19T22:51:40.721Z,11.43
2023-10-19T22:54:08.454Z,16.13
2023-10-19T22:56:38.192Z,19.27
2023-10-19T22:59:05.638Z,20.17
2023-10-19T23:01:33.896Z,17.23
2023-10-19T23:04:02.230Z,15.50
2023-10-19T23:06:30.954Z,18.70
2023-10-19T23:09:01.931Z,15.32
2023-10-19T23:11:32.529Z,13.47
2023-10-19T23:14:04.737Z,12.60
2023-10-19T23:16:35.901Z,12.73
2023-10-19T23:19:03.270Z,11.40
2023-10-19T23:21:38.023Z,16.47
2023-10-19T23:24:06.483Z,15.97
2023-10-19T23:26:33.888Z,15.60
2023-10-19T23:29:06.139Z,14.87
2023-10-19T23:31:39.474Z,14.27
2023-10-19T23:34:07.169Z,15.77
2023-10-19T23:36:34.763Z,14.77
2023-10-19T23:39:03.224Z,19.30
2023-10-19T23:41:30.809Z,15.27
2023-10-19T23:43:58.680Z,16.17
2023-10-19T23:46:26.037Z,14.23
2023-10-19T23:48:53.361Z,10.53
2023-10-19T23:51:21.060Z,10.60
2023-10-19T23:53:49.183Z,11.17
2023-10-19T23:56:16.603Z,10.00
2023-10-19T23:58:44.249Z,12.07
